Terminal Aerodrome Forecast
Issued by NWS Charleston, WV

Current Version | Previous Version | Text Only | Print | Product List | Glossary Off
Versions: 1 2 3 4 5 6 7 8 9 10 11 12 13 14 15 16 17 18 19 20 21 22 23

000
FTUS41 KRLX 221600 AAA
TAFPKB
TAF AMD
KPKB 221627Z 2216/2312 02005KT P6SM SCT025 BKN040
     FM222000 36006KT P6SM SCT030
     FM230100 00000KT P6SM SCT035
     FM230600 00000KT P6SM SCT250
     FM230700 00000KT 5SM BR SCT250
     FM230900 00000KT 1/4SM FG VV001=

USA.gov is the U.S. government's official web portal to all federal, state and local government web resources and services.